sensor_id;sensor_type;location;lat;lon;timestamp;P1;durP1;ratioP1;P2;durP2;ratioP2
79759;SDS011;70512;42.122;24.732;2023-11-21T00:00:16;3.17;;;2.10;;
79759;SDS011;70512;42.122;24.732;2023-11-21T00:02:45;5.03;;;2.75;;
79759;SDS011;70512;42.122;24.732;2023-11-21T00:05:13;8.15;;;3.00;;
79759;SDS011;70512;42.122;24.732;2023-11-21T00:07:42;10.00;;;2.55;;
79759;SDS011;70512;42.122;24.732;2023-11-21T00:10:10;9.40;;;2.55;;
79759;SDS011;70512;42.122;24.732;2023-11-21T00:12:40;5.72;;;2.75;;
79759;SDS011;70512;42.122;24.732;2023-11-21T00:15:08;4.42;;;2.67;;
79759;SDS011;70512;42.122;24.732;2023-11-21T00:17:39;3.00;;;1.95;;
79759;SDS011;70512;42.122;24.732;2023-11-21T00:20:08;2.15;;;1.90;;
79759;SDS011;70512;42.122;24.732;2023-11-21T00:22:38;2.77;;;1.85;;
79759;SDS011;70512;42.122;24.732;2023-11-21T00:25:06;2.50;;;1.70;;
79759;SDS011;70512;42.122;24.732;2023-11-21T00:27:35;5.55;;;2.25;;
79759;SDS011;70512;42.122;24.732;2023-11-21T00:30:03;2.95;;;2.30;;
79759;SDS011;70512;42.122;24.732;2023-11-21T00:32:32;2.40;;;1.80;;
79759;SDS011;70512;42.122;24.732;2023-11-21T00:35:00;3.22;;;1.98;;
79759;SDS011;70512;42.122;24.732;2023-11-21T00:37:27;3.00;;;1.90;;
79759;SDS011;70512;42.122;24.732;2023-11-21T00:39:56;3.05;;;2.10;;
79759;SDS011;70512;42.122;24.732;2023-11-21T00:42:24;3.17;;;2.22;;
79759;SDS011;70512;42.122;24.732;2023-11-21T00:44:53;5.03;;;2.10;;
79759;SDS011;70512;42.122;24.732;2023-11-21T00:47:25;6.50;;;2.20;;
79759;SDS011;70512;42.122;24.732;2023-11-21T00:49:53;4.62;;;2.98;;
79759;SDS011;70512;42.122;24.732;2023-11-21T00:52:20;5.40;;;2.87;;
79759;SDS011;70512;42.122;24.732;2023-11-21T00:54:51;4.10;;;2.58;;
79759;SDS011;70512;42.122;24.732;2023-11-21T00:57:19;4.33;;;2.33;;
79759;SDS011;70512;42.122;24.732;2023-11-21T00:59:47;7.25;;;2.40;;
79759;SDS011;70512;42.122;24.732;2023-11-21T01:02:14;8.15;;;2.47;;
79759;SDS011;70512;42.122;24.732;2023-11-21T01:04:42;4.85;;;2.77;;
79759;SDS011;70512;42.122;24.732;2023-11-21T01:07:09;5.95;;;3.15;;
79759;SDS011;70512;42.122;24.732;2023-11-21T01:09:37;5.80;;;2.92;;
79759;SDS011;70512;42.122;24.732;2023-11-21T01:12:04;7.30;;;3.20;;
79759;SDS011;70512;42.122;24.732;2023-11-21T01:14:32;4.53;;;3.17;;
79759;SDS011;70512;42.122;24.732;2023-11-21T01:17:01;4.75;;;2.87;;
79759;SDS011;70512;42.122;24.732;2023-11-21T01:19:30;7.42;;;3.47;;
79759;SDS011;70512;42.122;24.732;2023-11-21T01:21:58;5.78;;;3.52;;
79759;SDS011;70512;42.122;24.732;2023-11-21T01:24:25;5.45;;;3.40;;
79759;SDS011;70512;42.122;24.732;2023-11-21T01:26:53;5.75;;;3.42;;
79759;SDS011;70512;42.122;24.732;2023-11-21T01:29:20;6.95;;;3.55;;
79759;SDS011;70512;42.122;24.732;2023-11-21T01:31:48;8.48;;;4.00;;
79759;SDS011;70512;42.122;24.732;2023-11-21T01:34:15;6.12;;;3.52;;
79759;SDS011;70512;42.122;24.732;2023-11-21T01:36:45;6.90;;;3.22;;
79759;SDS011;70512;42.122;24.732;2023-11-21T01:39:13;6.97;;;3.50;;
79759;SDS011;70512;42.122;24.732;2023-11-21T01:41:42;8.73;;;3.33;;
79759;SDS011;70512;42.122;24.732;2023-11-21T01:44:10;8.20;;;3.83;;
79759;SDS011;70512;42.122;24.732;2023-11-21T01:46:39;7.50;;;3.70;;
79759;SDS011;70512;42.122;24.732;2023-11-21T01:49:07;6.22;;;3.75;;
79759;SDS011;70512;42.122;24.732;2023-11-21T01:51:38;6.87;;;3.40;;
79759;SDS011;70512;42.122;24.732;2023-11-21T01:54:08;6.95;;;4.05;;
79759;SDS011;70512;42.122;24.732;2023-11-21T01:56:37;6.33;;;4.00;;
79759;SDS011;70512;42.122;24.732;2023-11-21T01:59:05;7.08;;;4.35;;
79759;SDS011;70512;42.122;24.732;2023-11-21T02:01:33;15.70;;;4.72;;
79759;SDS011;70512;42.122;24.732;2023-11-21T02:04:01;7.67;;;3.95;;
79759;SDS011;70512;42.122;24.732;2023-11-21T02:06:29;7.05;;;4.28;;
79759;SDS011;70512;42.122;24.732;2023-11-21T02:08:57;7.65;;;4.65;;
79759;SDS011;70512;42.122;24.732;2023-11-21T02:11:30;8.63;;;4.58;;
79759;SDS011;70512;42.122;24.732;2023-11-21T02:13:58;17.62;;;6.75;;
79759;SDS011;70512;42.122;24.732;2023-11-21T02:16:26;12.63;;;6.17;;
79759;SDS011;70512;42.122;24.732;2023-11-21T02:18:56;15.53;;;7.35;;
79759;SDS011;70512;42.122;24.732;2023-11-21T02:21:24;13.98;;;6.75;;
79759;SDS011;70512;42.122;24.732;2023-11-21T02:23:52;14.98;;;6.45;;
79759;SDS011;70512;42.122;24.732;2023-11-21T02:26:21;18.67;;;7.78;;
79759;SDS011;70512;42.122;24.732;2023-11-21T02:28:48;14.65;;;7.15;;
79759;SDS011;70512;42.122;24.732;2023-11-21T02:31:17;8.25;;;5.47;;
79759;SDS011;70512;42.122;24.732;2023-11-21T02:33:45;8.55;;;5.17;;
79759;SDS011;70512;42.122;24.732;2023-11-21T02:36:13;12.63;;;6.08;;
79759;SDS011;70512;42.122;24.732;2023-11-21T02:38:40;15.75;;;6.87;;
79759;SDS011;70512;42.122;24.732;2023-11-21T02:41:08;8.70;;;5.45;;
79759;SDS011;70512;42.122;24.732;2023-11-21T02:43:35;14.15;;;6.70;;
79759;SDS011;70512;42.122;24.732;2023-11-21T02:46:04;9.28;;;5.72;;
79759;SDS011;70512;42.122;24.732;2023-11-21T02:48:32;12.20;;;6.30;;
79759;SDS011;70512;42.122;24.732;2023-11-21T02:51:00;13.40;;;6.53;;
79759;SDS011;70512;42.122;24.732;2023-11-21T02:53:28;19.85;;;6.58;;
79759;SDS011;70512;42.122;24.732;2023-11-21T02:55:55;15.98;;;7.03;;
79759;SDS011;70512;42.122;24.732;2023-11-21T02:58:23;23.55;;;8.65;;
79759;SDS011;70512;42.122;24.732;2023-11-21T03:00:51;21.15;;;9.58;;
79759;SDS011;70512;42.122;24.732;2023-11-21T03:03:19;21.07;;;7.62;;
79759;SDS011;70512;42.122;24.732;2023-11-21T03:05:54;24.67;;;8.53;;
79759;SDS011;70512;42.122;24.732;2023-11-21T03:08:18;12.73;;;7.42;;
79759;SDS011;70512;42.122;24.732;2023-11-21T03:10:47;12.07;;;6.92;;
79759;SDS011;70512;42.122;24.732;2023-11-21T03:13:14;16.48;;;6.78;;
79759;SDS011;70512;42.122;24.732;2023-11-21T03:15:42;14.47;;;7.22;;
79759;SDS011;70512;42.122;24.732;2023-11-21T03:18:10;14.80;;;7.35;;
79759;SDS011;70512;42.122;24.732;2023-11-21T03:20:38;16.42;;;8.10;;
79759;SDS011;70512;42.122;24.732;2023-11-21T03:23:07;21.33;;;8.90;;
79759;SDS011;70512;42.122;24.732;2023-11-21T03:25:34;12.35;;;7.22;;
79759;SDS011;70512;42.122;24.732;2023-11-21T03:28:02;12.15;;;7.22;;
79759;SDS011;70512;42.122;24.732;2023-11-21T03:30:31;19.07;;;7.53;;
79759;SDS011;70512;42.122;24.732;2023-11-21T03:32:59;16.40;;;7.75;;
79759;SDS011;70512;42.122;24.732;2023-11-21T03:35:26;18.05;;;8.98;;
79759;SDS011;70512;42.122;24.732;2023-11-21T03:37:54;19.82;;;8.43;;
79759;SDS011;70512;42.122;24.732;2023-11-21T03:40:22;17.82;;;7.62;;
79759;SDS011;70512;42.122;24.732;2023-11-21T03:42:49;18.10;;;7.65;;
79759;SDS011;70512;42.122;24.732;2023-11-21T03:45:17;16.05;;;7.95;;
79759;SDS011;70512;42.122;24.732;2023-11-21T03:47:45;17.77;;;8.13;;
79759;SDS011;70512;42.122;24.732;2023-11-21T03:50:13;23.40;;;7.67;;
79759;SDS011;70512;42.122;24.732;2023-11-21T03:52:40;15.78;;;7.95;;
79759;SDS011;70512;42.122;24.732;2023-11-21T03:55:08;16.75;;;7.45;;
79759;SDS011;70512;42.122;24.732;2023-11-21T03:57:36;13.98;;;7.20;;
79759;SDS011;70512;42.122;24.732;2023-11-21T04:00:04;17.77;;;7.53;;
79759;SDS011;70512;42.122;24.732;2023-11-21T04:02:39;17.07;;;7.55;;
79759;SDS011;70512;42.122;24.732;2023-11-21T04:05:07;20.55;;;8.98;;
79759;SDS011;70512;42.122;24.732;2023-11-21T04:07:35;23.67;;;8.08;;
79759;SDS011;70512;42.122;24.732;2023-11-21T04:10:04;25.85;;;8.28;;
79759;SDS011;70512;42.122;24.732;2023-11-21T04:12:35;19.32;;;7.80;;
79759;SDS011;70512;42.122;24.732;2023-11-21T04:15:03;18.65;;;7.25;;
79759;SDS011;70512;42.122;24.732;2023-11-21T04:17:31;22.42;;;8.40;;
79759;SDS011;70512;42.122;24.732;2023-11-21T04:19:58;20.43;;;8.55;;
79759;SDS011;70512;42.122;24.732;2023-11-21T04:22:26;24.18;;;9.03;;
79759;SDS011;70512;42.122;24.732;2023-11-21T04:24:54;27.45;;;9.53;;
79759;SDS011;70512;42.122;24.732;2023-11-21T04:27:21;33.18;;;9.45;;
79759;SDS011;70512;42.122;24.732;2023-11-21T04:29:50;32.08;;;9.45;;
79759;SDS011;70512;42.122;24.732;2023-11-21T04:32:18;23.80;;;9.48;;
79759;SDS011;70512;42.122;24.732;2023-11-21T04:34:46;23.30;;;9.85;;
79759;SDS011;70512;42.122;24.732;2023-11-21T04:37:13;18.02;;;8.33;;
79759;SDS011;70512;42.122;24.732;2023-11-21T04:39:41;19.85;;;8.20;;
79759;SDS011;70512;42.122;24.732;2023-11-21T04:42:09;27.42;;;8.53;;
79759;SDS011;70512;42.122;24.732;2023-11-21T04:44:36;18.42;;;9.58;;
79759;SDS011;70512;42.122;24.732;2023-11-21T04:47:05;21.35;;;8.10;;
79759;SDS011;70512;42.122;24.732;2023-11-21T04:49:33;19.67;;;8.43;;
79759;SDS011;70512;42.122;24.732;2023-11-21T04:52:01;15.72;;;7.65;;
79759;SDS011;70512;42.122;24.732;2023-11-21T04:54:30;18.48;;;8.15;;
79759;SDS011;70512;42.122;24.732;2023-11-21T04:56:59;17.15;;;8.43;;
79759;SDS011;70512;42.122;24.732;2023-11-21T04:59:27;27.50;;;10.90;;
79759;SDS011;70512;42.122;24.732;2023-11-21T05:01:54;32.48;;;11.05;;
79759;SDS011;70512;42.122;24.732;2023-11-21T05:04:22;33.40;;;11.10;;
79759;SDS011;70512;42.122;24.732;2023-11-21T05:06:49;23.05;;;9.50;;
79759;SDS011;70512;42.122;24.732;2023-11-21T05:09:19;28.80;;;10.38;;
79759;SDS011;70512;42.122;24.732;2023-11-21T05:11:48;81.37;;;30.23;;
79759;SDS011;70512;42.122;24.732;2023-11-21T05:14:17;36.35;;;15.18;;
79759;SDS011;70512;42.122;24.732;2023-11-21T05:16:45;31.02;;;13.38;;
79759;SDS011;70512;42.122;24.732;2023-11-21T05:19:13;24.92;;;11.63;;
79759;SDS011;70512;42.122;24.732;2023-11-21T05:21:40;36.77;;;15.38;;
79759;SDS011;70512;42.122;24.732;2023-11-21T05:24:08;45.60;;;14.38;;
79759;SDS011;70512;42.122;24.732;2023-11-21T05:26:35;50.05;;;13.62;;
79759;SDS011;70512;42.122;24.732;2023-11-21T05:29:04;29.05;;;10.55;;
79759;SDS011;70512;42.122;24.732;2023-11-21T05:31:35;46.18;;;14.95;;
79759;SDS011;70512;42.122;24.732;2023-11-21T05:34:01;42.10;;;13.30;;
79759;SDS011;70512;42.122;24.732;2023-11-21T05:36:31;40.38;;;13.72;;
79759;SDS011;70512;42.122;24.732;2023-11-21T05:38:59;48.87;;;16.70;;
79759;SDS011;70512;42.122;24.732;2023-11-21T05:41:28;33.25;;;13.45;;
79759;SDS011;70512;42.122;24.732;2023-11-21T05:43:56;38.65;;;12.88;;
79759;SDS011;70512;42.122;24.732;2023-11-21T05:46:24;28.45;;;11.15;;
79759;SDS011;70512;42.122;24.732;2023-11-21T05:48:51;15.95;;;7.72;;
79759;SDS011;70512;42.122;24.732;2023-11-21T05:51:19;37.23;;;10.80;;
79759;SDS011;70512;42.122;24.732;2023-11-21T05:53:46;23.67;;;10.55;;
79759;SDS011;70512;42.122;24.732;2023-11-21T05:56:14;28.38;;;9.73;;
79759;SDS011;70512;42.122;24.732;2023-11-21T05:58:43;18.25;;;8.73;;
79759;SDS011;70512;42.122;24.732;2023-11-21T06:01:10;23.27;;;9.40;;
79759;SDS011;70512;42.122;24.732;2023-11-21T06:03:38;21.75;;;9.15;;
79759;SDS011;70512;42.122;24.732;2023-11-21T06:06:06;17.57;;;7.87;;
79759;SDS011;70512;42.122;24.732;2023-11-21T06:08:34;17.95;;;8.68;;
79759;SDS011;70512;42.122;24.732;2023-11-21T06:11:02;25.55;;;11.57;;
79759;SDS011;70512;42.122;24.732;2023-11-21T06:13:30;29.65;;;11.83;;
79759;SDS011;70512;42.122;24.732;2023-11-21T06:15:57;27.85;;;10.10;;
79759;SDS011;70512;42.122;24.732;2023-11-21T06:18:26;36.17;;;13.72;;
79759;SDS011;70512;42.122;24.732;2023-11-21T06:20:54;37.38;;;12.80;;
79759;SDS011;70512;42.122;24.732;2023-11-21T06:23:21;34.43;;;13.32;;
79759;SDS011;70512;42.122;24.732;2023-11-21T06:25:49;24.45;;;11.20;;
79759;SDS011;70512;42.122;24.732;2023-11-21T06:28:16;26.80;;;12.43;;
79759;SDS011;70512;42.122;24.732;2023-11-21T06:30:44;22.67;;;10.15;;
79759;SDS011;70512;42.122;24.732;2023-11-21T06:33:11;15.98;;;7.50;;
79759;SDS011;70512;42.122;24.732;2023-11-21T06:35:39;20.68;;;7.58;;
79759;SDS011;70512;42.122;24.732;2023-11-21T06:38:10;17.23;;;8.05;;
79759;SDS011;70512;42.122;24.732;2023-11-21T06:40:38;24.05;;;8.80;;
79759;SDS011;70512;42.122;24.732;2023-11-21T06:43:06;19.52;;;7.97;;
79759;SDS011;70512;42.122;24.732;2023-11-21T06:45:34;24.05;;;9.03;;
79759;SDS011;70512;42.122;24.732;2023-11-21T06:48:02;15.80;;;7.30;;
79759;SDS011;70512;42.122;24.732;2023-11-21T06:50:29;16.45;;;7.85;;
79759;SDS011;70512;42.122;24.732;2023-11-21T06:52:57;12.13;;;7.35;;
79759;SDS011;70512;42.122;24.732;2023-11-21T06:55:24;16.93;;;8.45;;
79759;SDS011;70512;42.122;24.732;2023-11-21T06:57:52;14.30;;;7.30;;
79759;SDS011;70512;42.122;24.732;2023-11-21T07:00:21;23.47;;;9.15;;
79759;SDS011;70512;42.122;24.732;2023-11-21T07:02:48;16.57;;;8.13;;
79759;SDS011;70512;42.122;24.732;2023-11-21T07:05:17;17.85;;;8.60;;
79759;SDS011;70512;42.122;24.732;2023-11-21T07:07:47;16.05;;;8.15;;
79759;SDS011;70512;42.122;24.732;2023-11-21T07:10:16;19.02;;;8.78;;
79759;SDS011;70512;42.122;24.732;2023-11-21T07:12:43;27.67;;;9.90;;
79759;SDS011;70512;42.122;24.732;2023-11-21T07:15:13;19.40;;;9.70;;
79759;SDS011;70512;42.122;24.732;2023-11-21T07:17:40;18.37;;;8.53;;
79759;SDS011;70512;42.122;24.732;2023-11-21T07:20:10;17.70;;;8.68;;
79759;SDS011;70512;42.122;24.732;2023-11-21T07:22:38;22.42;;;8.95;;
79759;SDS011;70512;42.122;24.732;2023-11-21T07:25:06;18.62;;;8.78;;
79759;SDS011;70512;42.122;24.732;2023-11-21T07:27:35;20.68;;;9.18;;
79759;SDS011;70512;42.122;24.732;2023-11-21T07:30:03;21.10;;;9.73;;
79759;SDS011;70512;42.122;24.732;2023-11-21T07:32:33;23.55;;;9.60;;
79759;SDS011;70512;42.122;24.732;2023-11-21T07:35:01;18.85;;;9.03;;
79759;SDS011;70512;42.122;24.732;2023-11-21T07:37:28;20.97;;;8.75;;
79759;SDS011;70512;42.122;24.732;2023-11-21T07:39:56;28.42;;;10.60;;
79759;SDS011;70512;42.122;24.732;2023-11-21T07:42:23;21.68;;;8.53;;
79759;SDS011;70512;42.122;24.732;2023-11-21T07:44:53;20.85;;;9.50;;
79759;SDS011;70512;42.122;24.732;2023-11-21T07:47:22;32.98;;;11.48;;
79759;SDS011;70512;42.122;24.732;2023-11-21T07:49:51;16.32;;;8.85;;
79759;SDS011;70512;42.122;24.732;2023-11-21T07:52:18;23.80;;;8.90;;
79759;SDS011;70512;42.122;24.732;2023-11-21T07:54:47;17.95;;;8.58;;
79759;SDS011;70512;42.122;24.732;2023-11-21T07:57:14;22.25;;;8.90;;
79759;SDS011;70512;42.122;24.732;2023-11-21T07:59:42;21.80;;;10.23;;
79759;SDS011;70512;42.122;24.732;2023-11-21T08:02:10;18.98;;;10.15;;
79759;SDS011;70512;42.122;24.732;2023-11-21T08:04:40;26.20;;;8.00;;
79759;SDS011;70512;42.122;24.732;2023-11-21T08:07:17;22.90;;;9.13;;
79759;SDS011;70512;42.122;24.732;2023-11-21T08:09:40;17.48;;;8.80;;
79759;SDS011;70512;42.122;24.732;2023-11-21T08:12:11;15.30;;;7.97;;
79759;SDS011;70512;42.122;24.732;2023-11-21T08:14:39;19.90;;;7.95;;
79759;SDS011;70512;42.122;24.732;2023-11-21T08:17:06;22.73;;;9.98;;
79759;SDS011;70512;42.122;24.732;2023-11-21T08:19:36;20.40;;;9.15;;
79759;SDS011;70512;42.122;24.732;2023-11-21T08:22:03;22.98;;;9.25;;
79759;SDS011;70512;42.122;24.732;2023-11-21T08:24:33;18.70;;;7.95;;
79759;SDS011;70512;42.122;24.732;2023-11-21T08:27:00;28.40;;;10.82;;
79759;SDS011;70512;42.122;24.732;2023-11-21T08:29:29;18.02;;;7.95;;
79759;SDS011;70512;42.122;24.732;2023-11-21T08:31:57;30.77;;;9.63;;
79759;SDS011;70512;42.122;24.732;2023-11-21T08:34:25;14.23;;;7.10;;
79759;SDS011;70512;42.122;24.732;2023-11-21T08:36:54;15.43;;;7.58;;
79759;SDS011;70512;42.122;24.732;2023-11-21T08:39:23;14.53;;;7.45;;
79759;SDS011;70512;42.122;24.732;2023-11-21T08:41:50;23.92;;;8.85;;
79759;SDS011;70512;42.122;24.732;2023-11-21T08:44:18;15.98;;;8.08;;
79759;SDS011;70512;42.122;24.732;2023-11-21T08:46:45;18.85;;;7.17;;
79759;SDS011;70512;42.122;24.732;2023-11-21T08:49:13;19.05;;;6.67;;
79759;SDS011;70512;42.122;24.732;2023-11-21T08:51:41;16.40;;;7.00;;
79759;SDS011;70512;42.122;24.732;2023-11-21T08:54:10;14.83;;;6.60;;
79759;SDS011;70512;42.122;24.732;2023-11-21T08:56:43;27.65;;;8.15;;
79759;SDS011;70512;42.122;24.732;2023-11-21T08:59:08;13.83;;;7.67;;
79759;SDS011;70512;42.122;24.732;2023-11-21T09:01:36;16.02;;;8.30;;
79759;SDS011;70512;42.122;24.732;2023-11-21T09:04:04;24.50;;;8.70;;
79759;SDS011;70512;42.122;24.732;2023-11-21T09:06:32;18.87;;;7.70;;
79759;SDS011;70512;42.122;24.732;2023-11-21T09:09:01;20.68;;;7.03;;
79759;SDS011;70512;42.122;24.732;2023-11-21T09:11:30;19.67;;;8.00;;
79759;SDS011;70512;42.122;24.732;2023-11-21T09:13:59;17.25;;;7.20;;
79759;SDS011;70512;42.122;24.732;2023-11-21T09:16:29;16.73;;;6.83;;
79759;SDS011;70512;42.122;24.732;2023-11-21T09:18:58;31.33;;;7.47;;
79759;SDS011;70512;42.122;24.732;2023-11-21T09:21:25;14.15;;;6.80;;
79759;SDS011;70512;42.122;24.732;2023-11-21T09:23:53;17.92;;;7.47;;
79759;SDS011;70512;42.122;24.732;2023-11-21T09:26:21;29.45;;;14.10;;
79759;SDS011;70512;42.122;24.732;2023-11-21T09:28:48;20.27;;;6.90;;
79759;SDS011;70512;42.122;24.732;2023-11-21T09:31:21;9.83;;;5.95;;
79759;SDS011;70512;42.122;24.732;2023-11-21T09:33:47;14.70;;;6.85;;
79759;SDS011;70512;42.122;24.732;2023-11-21T09:36:14;13.68;;;5.83;;
79759;SDS011;70512;42.122;24.732;2023-11-21T09:38:42;21.12;;;7.12;;
79759;SDS011;70512;42.122;24.732;2023-11-21T09:43:42;17.65;;;6.67;;
79759;SDS011;70512;42.122;24.732;2023-11-21T09:46:12;13.53;;;7.70;;
79759;SDS011;70512;42.122;24.732;2023-11-21T09:48:43;16.33;;;6.50;;
79759;SDS011;70512;42.122;24.732;2023-11-21T09:51:11;13.62;;;6.17;;
79759;SDS011;70512;42.122;24.732;2023-11-21T09:53:39;12.85;;;6.10;;
79759;SDS011;70512;42.122;24.732;2023-11-21T09:56:10;19.98;;;9.53;;
79759;SDS011;70512;42.122;24.732;2023-11-21T09:58:37;17.17;;;7.60;;
79759;SDS011;70512;42.122;24.732;2023-11-21T10:01:05;14.00;;;6.67;;
79759;SDS011;70512;42.122;24.732;2023-11-21T10:03:40;16.93;;;7.40;;
79759;SDS011;70512;42.122;24.732;2023-11-21T10:06:04;20.65;;;6.60;;
79759;SDS011;70512;42.122;24.732;2023-11-21T10:08:33;15.13;;;8.20;;
79759;SDS011;70512;42.122;24.732;2023-11-21T10:11:02;17.10;;;8.35;;
79759;SDS011;70512;42.122;24.732;2023-11-21T10:13:32;18.17;;;7.55;;
79759;SDS011;70512;42.122;24.732;2023-11-21T10:16:01;15.20;;;7.60;;
79759;SDS011;70512;42.122;24.732;2023-11-21T10:18:50;14.28;;;7.08;;
79759;SDS011;70512;42.122;24.732;2023-11-21T10:21:21;16.12;;;7.17;;
79759;SDS011;70512;42.122;24.732;2023-11-21T10:23:50;18.77;;;8.23;;
79759;SDS011;70512;42.122;24.732;2023-11-21T10:26:19;13.55;;;7.75;;
79759;SDS011;70512;42.122;24.732;2023-11-21T10:28:58;11.22;;;7.22;;
79759;SDS011;70512;42.122;24.732;2023-11-21T10:31:26;17.10;;;10.93;;
79759;SDS011;70512;42.122;24.732;2023-11-21T10:36:42;15.30;;;8.03;;
79759;SDS011;70512;42.122;24.732;2023-11-21T10:39:14;27.75;;;17.87;;
79759;SDS011;70512;42.122;24.732;2023-11-21T10:41:46;13.38;;;7.37;;
79759;SDS011;70512;42.122;24.732;2023-11-21T10:44:14;11.97;;;7.25;;
79759;SDS011;70512;42.122;24.732;2023-11-21T10:46:47;18.95;;;7.40;;
79759;SDS011;70512;42.122;24.732;2023-11-21T10:49:18;12.88;;;8.60;;
79759;SDS011;70512;42.122;24.732;2023-11-21T10:51:47;13.18;;;7.12;;
79759;SDS011;70512;42.122;24.732;2023-11-21T10:54:18;13.15;;;7.25;;
79759;SDS011;70512;42.122;24.732;2023-11-21T10:56:49;13.62;;;7.15;;
79759;SDS011;70512;42.122;24.732;2023-11-21T10:59:19;19.05;;;7.45;;
79759;SDS011;70512;42.122;24.732;2023-11-21T11:01:48;14.70;;;8.58;;
79759;SDS011;70512;42.122;24.732;2023-11-21T11:04:18;28.65;;;8.75;;
79759;SDS011;70512;42.122;24.732;2023-11-21T11:06:51;12.47;;;7.83;;
79759;SDS011;70512;42.122;24.732;2023-11-21T11:09:22;18.05;;;10.28;;
79759;SDS011;70512;42.122;24.732;2023-11-21T11:11:50;27.62;;;8.83;;
79759;SDS011;70512;42.122;24.732;2023-11-21T11:14:20;17.37;;;8.73;;
79759;SDS011;70512;42.122;24.732;2023-11-21T11:16:49;21.20;;;8.43;;
79759;SDS011;70512;42.122;24.732;2023-11-21T11:19:19;17.67;;;8.53;;
79759;SDS011;70512;42.122;24.732;2023-11-21T11:27:29;23.70;;;9.70;;
79759;SDS011;70512;42.122;24.732;2023-11-21T11:35:26;28.20;;;9.68;;
79759;SDS011;70512;42.122;24.732;2023-11-21T11:37:57;31.20;;;8.40;;
79759;SDS011;70512;42.122;24.732;2023-11-21T11:43:14;22.80;;;9.45;;
79759;SDS011;70512;42.122;24.732;2023-11-21T11:45:44;37.17;;;9.70;;
79759;SDS011;70512;42.122;24.732;2023-11-21T11:48:14;16.25;;;7.92;;
79759;SDS011;70512;42.122;24.732;2023-11-21T11:51:07;18.25;;;7.45;;
79759;SDS011;70512;42.122;24.732;2023-11-21T11:53:36;19.57;;;7.40;;
79759;SDS011;70512;42.122;24.732;2023-11-21T11:58:48;25.30;;;10.72;;
79759;SDS011;70512;42.122;24.732;2023-11-21T12:01:20;18.67;;;8.80;;
79759;SDS011;70512;42.122;24.732;2023-11-21T12:04:34;19.25;;;8.55;;
79759;SDS011;70512;42.122;24.732;2023-11-21T12:06:34;14.15;;;7.60;;
79759;SDS011;70512;42.122;24.732;2023-11-21T12:09:02;13.45;;;7.50;;
79759;SDS011;70512;42.122;24.732;2023-11-21T12:11:33;14.13;;;6.90;;
79759;SDS011;70512;42.122;24.732;2023-11-21T12:14:02;20.02;;;7.65;;
79759;SDS011;70512;42.122;24.732;2023-11-21T12:16:32;17.05;;;7.67;;
79759;SDS011;70512;42.122;24.732;2023-11-21T12:19:02;14.23;;;7.45;;
79759;SDS011;70512;42.122;24.732;2023-11-21T12:21:30;18.23;;;8.58;;
79759;SDS011;70512;42.122;24.732;2023-11-21T12:23:59;16.05;;;7.53;;
79759;SDS011;70512;42.122;24.732;2023-11-21T12:26:27;17.73;;;7.50;;
79759;SDS011;70512;42.122;24.732;2023-11-21T12:28:54;12.07;;;6.70;;
79759;SDS011;70512;42.122;24.732;2023-11-21T12:31:27;14.45;;;8.30;;
79759;SDS011;70512;42.122;24.732;2023-11-21T12:33:51;18.20;;;8.55;;
79759;SDS011;70512;42.122;24.732;2023-11-21T12:36:19;13.48;;;8.43;;
79759;SDS011;70512;42.122;24.732;2023-11-21T12:38:48;16.77;;;9.20;;
79759;SDS011;70512;42.122;24.732;2023-11-21T12:41:15;15.25;;;8.48;;
79759;SDS011;70512;42.122;24.732;2023-11-21T12:43:43;13.15;;;8.70;;
79759;SDS011;70512;42.122;24.732;2023-11-21T12:46:13;17.77;;;9.83;;
79759;SDS011;70512;42.122;24.732;2023-11-21T12:48:43;19.98;;;10.03;;
79759;SDS011;70512;42.122;24.732;2023-11-21T12:51:14;13.65;;;9.38;;
79759;SDS011;70512;42.122;24.732;2023-11-21T12:53:44;19.40;;;9.55;;
79759;SDS011;70512;42.122;24.732;2023-11-21T12:56:15;12.47;;;7.37;;
79759;SDS011;70512;42.122;24.732;2023-11-21T12:58:46;12.90;;;7.00;;
79759;SDS011;70512;42.122;24.732;2023-11-21T13:01:13;8.28;;;5.97;;
79759;SDS011;70512;42.122;24.732;2023-11-21T13:03:43;12.25;;;6.70;;
79759;SDS011;70512;42.122;24.732;2023-11-21T13:06:14;10.60;;;6.15;;
79759;SDS011;70512;42.122;24.732;2023-11-21T13:08:43;15.15;;;6.22;;
79759;SDS011;70512;42.122;24.732;2023-11-21T13:11:12;15.65;;;6.47;;
79759;SDS011;70512;42.122;24.732;2023-11-21T13:13:40;10.45;;;5.80;;
79759;SDS011;70512;42.122;24.732;2023-11-21T13:16:09;12.23;;;4.97;;
79759;SDS011;70512;42.122;24.732;2023-11-21T13:18:37;10.90;;;4.87;;
79759;SDS011;70512;42.122;24.732;2023-11-21T13:21:07;11.10;;;5.65;;
79759;SDS011;70512;42.122;24.732;2023-11-21T13:23:37;17.82;;;6.17;;
79759;SDS011;70512;42.122;24.732;2023-11-21T13:26:06;8.38;;;5.12;;
79759;SDS011;70512;42.122;24.732;2023-11-21T13:28:36;10.80;;;4.92;;
79759;SDS011;70512;42.122;24.732;2023-11-21T13:31:04;8.65;;;4.95;;
79759;SDS011;70512;42.122;24.732;2023-11-21T13:36:06;7.65;;;5.28;;
79759;SDS011;70512;42.122;24.732;2023-11-21T13:38:35;7.15;;;4.92;;
79759;SDS011;70512;42.122;24.732;2023-11-21T13:41:04;13.53;;;4.92;;
79759;SDS011;70512;42.122;24.732;2023-11-21T13:43:40;10.25;;;5.65;;
79759;SDS011;70512;42.122;24.732;2023-11-21T13:46:09;13.30;;;6.50;;
79759;SDS011;70512;42.122;24.732;2023-11-21T13:48:38;11.00;;;6.28;;
79759;SDS011;70512;42.122;24.732;2023-11-21T13:51:17;12.00;;;6.60;;
79759;SDS011;70512;42.122;24.732;2023-11-21T13:53:46;15.78;;;6.12;;
79759;SDS011;70512;42.122;24.732;2023-11-21T13:56:16;14.80;;;7.47;;
79759;SDS011;70512;42.122;24.732;2023-11-21T13:58:45;11.70;;;6.45;;
79759;SDS011;70512;42.122;24.732;2023-11-21T14:01:20;16.70;;;8.25;;
79759;SDS011;70512;42.122;24.732;2023-11-21T14:04:01;21.45;;;8.43;;
79759;SDS011;70512;42.122;24.732;2023-11-21T14:06:42;13.75;;;7.83;;
79759;SDS011;70512;42.122;24.732;2023-11-21T14:09:22;17.87;;;8.20;;
79759;SDS011;70512;42.122;24.732;2023-11-21T14:11:52;15.38;;;8.48;;
79759;SDS011;70512;42.122;24.732;2023-11-21T14:14:22;14.37;;;7.57;;
79759;SDS011;70512;42.122;24.732;2023-11-21T14:16:51;14.93;;;7.95;;
79759;SDS011;70512;42.122;24.732;2023-11-21T14:19:20;18.05;;;9.00;;
79759;SDS011;70512;42.122;24.732;2023-11-21T14:21:52;15.98;;;9.10;;
79759;SDS011;70512;42.122;24.732;2023-11-21T14:24:21;16.90;;;9.27;;
79759;SDS011;70512;42.122;24.732;2023-11-21T14:26:50;15.08;;;9.38;;
79759;SDS011;70512;42.122;24.732;2023-11-21T14:29:19;16.42;;;9.75;;
79759;SDS011;70512;42.122;24.732;2023-11-21T14:31:49;14.18;;;8.75;;
79759;SDS011;70512;42.122;24.732;2023-11-21T14:34:18;17.27;;;9.45;;
79759;SDS011;70512;42.122;24.732;2023-11-21T14:36:47;13.60;;;9.78;;
79759;SDS011;70512;42.122;24.732;2023-11-21T14:39:15;19.55;;;12.82;;
79759;SDS011;70512;42.122;24.732;2023-11-21T14:41:44;17.62;;;10.78;;
79759;SDS011;70512;42.122;24.732;2023-11-21T14:44:11;19.95;;;10.43;;
79759;SDS011;70512;42.122;24.732;2023-11-21T14:46:41;21.05;;;12.07;;
79759;SDS011;70512;42.122;24.732;2023-11-21T14:49:13;20.68;;;9.75;;
79759;SDS011;70512;42.122;24.732;2023-11-21T14:51:42;20.27;;;12.68;;
79759;SDS011;70512;42.122;24.732;2023-11-21T14:54:32;17.65;;;10.03;;